Time;durP1;ratioP1;P1;durP2;ratioP2;P2;SDS_P1;SDS_P2;PMS_P1;PMS_P2;Temp;Humidity;BMP_temperature;BMP_pressure;BME280_temperature;BME280_humidity;BME280_pressure;Samples;Min_cycle;Max_cycle;Signal;HPM_P1;HPM_P2
2024/03/25 00:00:18;;;;;;;5.07;3.33;;;;;;;5.04;75.35;94801.09;5088143;28;20214;-76
2024/03/25 00:02:43;;;;;;;5.77;3.37;;;;;;;4.93;75.59;94798.63;5090159;28;20187;-76
2024/03/25 00:05:09;;;;;;;3.70;2.83;;;;;;;4.94;75.66;94805.38;5081355;28;20200;-76
2024/03/25 00:07:35;;;;;;;6.40;3.37;;;;;;;5.06;75.34;94806.94;5082346;28;20327;-76
2024/03/25 00:10:01;;;;;;;4.77;3.20;;;;;;;4.85;76.02;94801.84;5084290;28;20214;-76
2024/03/25 00:12:26;;;;;;;6.37;3.60;;;;;;;4.86;76.11;94802.66;5084488;28;20558;-76
2024/03/25 00:14:51;;;;;;;10.43;3.73;;;;;;;4.92;76.02;94804.72;5066164;28;20199;-75
2024/03/25 00:17:17;;;;;;;8.43;3.40;;;;;;;5.06;75.14;94804.34;5089983;28;20216;-76
2024/03/25 00:19:42;;;;;;;6.40;3.57;;;;;;;4.98;75.37;94807.59;5076717;28;20642;-77
2024/03/25 00:22:08;;;;;;;6.30;3.40;;;;;;;4.70;76.39;94803.97;5064053;28;20195;-76
2024/03/25 00:24:33;;;;;;;7.13;3.50;;;;;;;4.89;75.95;94807.56;5087257;28;20188;-76
2024/03/25 00:26:58;;;;;;;8.50;3.47;;;;;;;4.87;75.44;94799.97;5084670;28;20209;-77
2024/03/25 00:29:24;;;;;;;4.37;2.97;;;;;;;4.98;75.38;94805.00;5085912;28;20215;-76
2024/03/25 00:31:49;;;;;;;13.57;3.73;;;;;;;5.00;75.21;94805.69;5081899;28;20270;-77
2024/03/25 00:34:14;;;;;;;4.97;3.30;;;;;;;4.95;75.55;94802.72;5100527;28;20246;-77
2024/03/25 00:36:39;;;;;;;6.43;3.23;;;;;;;4.81;75.87;94803.88;5088417;28;20561;-77
2024/03/25 00:39:05;;;;;;;9.00;4.00;;;;;;;4.82;76.14;94795.22;5085788;28;20192;-76
2024/03/25 00:41:30;;;;;;;7.30;3.20;;;;;;;4.86;76.31;94800.09;5092558;28;20281;-77
2024/03/25 00:43:56;;;;;;;6.13;3.43;;;;;;;4.86;76.41;94803.50;5099472;28;20233;-76
2024/03/25 00:46:21;;;;;;;6.90;3.73;;;;;;;4.81;76.75;94796.16;5081199;28;20241;-76
2024/03/25 00:48:46;;;;;;;8.33;3.60;;;;;;;4.77;76.58;94794.81;5084504;28;20706;-77
2024/03/25 00:51:12;;;;;;;5.77;3.53;;;;;;;5.01;75.97;94806.50;5083388;28;20645;-76
2024/03/25 00:53:37;;;;;;;11.73;3.63;;;;;;;4.94;76.07;94808.78;5082307;28;20226;-76
2024/03/25 00:56:03;;;;;;;5.97;3.27;;;;;;;4.90;76.34;94802.28;5081897;28;20237;-76
2024/03/25 00:58:28;;;;;;;6.90;3.80;;;;;;;4.82;76.57;94799.53;5075943;28;20201;-76
2024/03/25 01:00:53;;;;;;;6.60;3.37;;;;;;;4.99;76.03;94798.91;5085053;28;20618;-76
2024/03/25 01:03:19;;;;;;;6.07;3.30;;;;;;;5.00;75.96;94792.00;5086262;28;20184;-77
2024/03/25 01:05:44;;;;;;;4.90;3.50;;;;;;;4.84;76.64;94784.78;5079223;28;20551;-77
2024/03/25 01:08:10;;;;;;;7.17;3.47;;;;;;;4.91;76.03;94788.47;5075743;28;20254;-76
2024/03/25 01:10:36;;;;;;;6.97;3.63;;;;;;;4.81;76.48;94780.72;5085566;28;20189;-77
2024/03/25 01:13:02;;;;;;;10.70;4.00;;;;;;;4.92;76.00;94786.72;5077218;28;20600;-76
2024/03/25 01:15:27;;;;;;;7.80;3.83;;;;;;;5.04;76.06;94772.81;5079720;28;20726;-76
2024/03/25 01:17:52;;;;;;;9.40;3.80;;;;;;;5.05;75.58;94772.66;5092392;28;20211;-76
2024/03/25 01:20:18;;;;;;;6.90;3.70;;;;;;;5.09;75.59;94776.59;5081739;28;20177;-77
2024/03/25 01:22:43;;;;;;;9.37;3.73;;;;;;;4.81;76.20;94775.59;5093781;28;20180;-76
2024/03/25 01:25:08;;;;;;;6.20;3.90;;;;;;;5.07;75.95;94769.94;5094881;28;20183;-76
2024/03/25 01:27:34;;;;;;;7.87;3.87;;;;;;;5.01;76.00;94773.84;5097944;28;20568;-76
2024/03/25 01:30:00;;;;;;;7.63;3.67;;;;;;;4.99;75.72;94787.81;5084256;28;20628;-76
2024/03/25 01:32:25;;;;;;;6.23;3.47;;;;;;;5.01;76.01;94775.63;5074801;28;20184;-76
2024/03/25 01:34:50;;;;;;;5.10;3.27;;;;;;;5.13;75.30;94777.16;5089224;28;20237;-76
2024/03/25 01:37:16;;;;;;;6.90;3.37;;;;;;;5.12;75.05;94778.06;5081654;28;20306;-77
2024/03/25 01:39:41;;;;;;;7.60;3.80;;;;;;;5.05;75.55;94777.00;5084074;28;20213;-76
2024/03/25 01:42:06;;;;;;;9.50;3.80;;;;;;;5.02;75.92;94785.78;5078419;28;20176;-76
2024/03/25 01:44:32;;;;;;;7.23;3.70;;;;;;;4.94;75.96;94788.19;5085650;28;20200;-76
2024/03/25 01:46:57;;;;;;;4.70;3.23;;;;;;;4.96;75.80;94782.94;5078310;28;20227;-76
2024/03/25 01:49:24;;;;;;;9.47;3.67;;;;;;;5.03;75.47;94784.00;5076522;28;20231;-76
2024/03/25 01:51:49;;;;;;;8.43;4.07;;;;;;;4.83;76.33;94778.03;5083032;28;20203;-76
2024/03/25 01:54:16;;;;;;;10.10;3.83;;;;;;;5.08;75.57;94781.88;5095739;28;20177;-76
2024/03/25 01:56:42;;;;;;;8.07;3.90;;;;;;;5.09;75.62;94783.50;5074393;28;20184;-77
2024/03/25 01:59:08;;;;;;;9.07;4.07;;;;;;;4.82;76.38;94781.53;5093820;28;20177;-76
2024/03/25 02:01:34;;;;;;;9.30;3.80;;;;;;;5.10;75.23;94790.25;5068100;28;20191;-76
2024/03/25 02:03:59;;;;;;;6.77;4.23;;;;;;;5.08;75.13;94782.69;5084663;28;20198;-76
2024/03/25 02:06:27;;;;;;;7.60;3.90;;;;;;;5.09;75.09;94784.31;5057564;28;20207;-76
2024/03/25 02:08:53;;;;;;;9.43;4.00;;;;;;;5.01;75.53;94783.34;5084360;28;20207;-76
2024/03/25 02:11:18;;;;;;;8.63;3.93;;;;;;;4.99;75.46;94790.38;5081481;28;20684;-76
2024/03/25 02:13:43;;;;;;;7.37;4.37;;;;;;;4.98;75.56;94786.19;5082029;28;20603;-76
2024/03/25 02:16:09;;;;;;;7.43;4.53;;;;;;;4.94;75.78;94771.94;5081002;28;20184;-76
2024/03/25 02:18:34;;;;;;;8.93;3.70;;;;;;;5.06;75.19;94771.72;5076475;28;20224;-76
2024/03/25 02:21:00;;;;;;;9.67;3.63;;;;;;;4.88;76.02;94768.16;5079803;28;20180;-76
2024/03/25 02:23:26;;;;;;;7.50;4.27;;;;;;;5.07;75.42;94775.09;5080230;28;20295;-76
2024/03/25 02:25:52;;;;;;;6.33;3.50;;;;;;;4.91;75.67;94777.38;5097809;28;20675;-76
2024/03/25 02:28:17;;;;;;;7.97;4.07;;;;;;;4.88;75.90;94786.16;5096098;28;20199;-76
2024/03/25 02:30:43;;;;;;;7.13;3.87;;;;;;;4.87;75.42;94783.72;5093467;28;20188;-76
2024/03/25 02:33:08;;;;;;;7.83;4.03;;;;;;;4.96;75.04;94777.78;5060061;28;20559;-76
2024/03/25 02:35:34;;;;;;;8.23;4.23;;;;;;;4.93;74.94;94784.00;5096956;28;20195;-76
2024/03/25 02:38:00;;;;;;;6.80;3.90;;;;;;;4.94;75.03;94769.38;5074576;28;20302;-76
2024/03/25 02:40:26;;;;;;;6.83;3.63;;;;;;;4.93;74.92;94773.69;5079132;28;20267;-77
2024/03/25 02:42:51;;;;;;;9.40;3.97;;;;;;;4.87;75.37;94768.28;5087676;28;20206;-76
2024/03/25 02:45:17;;;;;;;7.30;4.10;;;;;;;4.96;75.28;94767.50;5075105;28;20193;-76
2024/03/25 02:47:43;;;;;;;8.60;3.93;;;;;;;4.98;75.15;94769.00;5079787;28;20217;-76
2024/03/25 02:50:08;;;;;;;9.97;4.13;;;;;;;4.87;75.54;94765.72;5094656;28;20211;-76
2024/03/25 02:52:33;;;;;;;6.80;3.80;;;;;;;5.06;74.60;94768.34;5087292;28;20204;-76
2024/03/25 02:54:59;;;;;;;8.70;3.63;;;;;;;4.93;75.22;94763.41;5074666;28;20195;-76
2024/03/25 02:57:24;;;;;;;8.03;3.73;;;;;;;5.05;74.90;94766.72;5074722;28;20197;-76
2024/03/25 02:59:49;;;;;;;7.77;3.40;;;;;;;5.08;74.65;94761.28;5091467;28;20186;-77
2024/03/25 03:02:15;;;;;;;7.50;3.90;;;;;;;5.09;74.76;94757.75;5077874;28;20204;-76
2024/03/25 03:04:40;;;;;;;9.37;4.30;;;;;;;5.09;74.58;94757.75;5095187;28;20275;-76
2024/03/25 03:07:05;;;;;;;8.03;4.20;;;;;;;4.86;75.15;94766.63;5088459;28;20277;-76
2024/03/25 03:09:31;;;;;;;6.13;3.33;;;;;;;4.96;74.80;94759.78;5086155;28;20195;-76
2024/03/25 03:11:56;;;;;;;6.43;3.70;;;;;;;5.10;74.75;94756.81;5082310;28;20650;-76
2024/03/25 03:14:21;;;;;;;3.90;3.43;;;;;;;5.08;74.66;94761.28;5083158;28;20203;-76
2024/03/25 03:16:47;;;;;;;6.20;3.83;;;;;;;5.03;74.45;94755.72;5078507;28;20207;-76
2024/03/25 03:19:12;;;;;;;8.87;3.70;;;;;;;5.09;74.65;94757.75;5086687;28;20185;-76
2024/03/25 03:21:38;;;;;;;10.03;4.03;;;;;;;5.02;74.71;94761.81;5079603;28;20188;-76
2024/03/25 03:24:04;;;;;;;8.67;3.93;;;;;;;5.05;74.61;94756.41;5082765;28;20181;-76
2024/03/25 03:26:29;;;;;;;9.93;3.83;;;;;;;5.04;74.92;94759.94;5087599;28;20214;-77
2024/03/25 03:28:55;;;;;;;6.17;3.70;;;;;;;4.92;75.11;94755.84;5075817;28;20208;-76
2024/03/25 03:31:23;;;;;;;7.60;3.73;;;;;;;4.81;75.41;94759.34;5081591;28;20197;-77
2024/03/25 03:33:49;;;;;;;8.03;4.23;;;;;;;4.84;75.74;94761.63;5085045;28;20755;-76
2024/03/25 03:36:19;;;;;;;7.33;3.73;;;;;;;4.86;75.60;94753.78;5089206;28;20180;-76
2024/03/25 03:38:44;;;;;;;8.47;3.90;;;;;;;4.98;75.62;94755.31;5093594;28;20304;-77
2024/03/25 03:41:10;;;;;;;7.70;4.00;;;;;;;4.99;74.98;94751.78;5082203;28;20661;-76
2024/03/25 03:43:35;;;;;;;7.87;3.87;;;;;;;4.95;75.27;94750.44;5079150;28;20205;-77
2024/03/25 03:46:01;;;;;;;7.23;4.20;;;;;;;5.06;74.93;94758.03;5078148;28;20249;-76
2024/03/25 03:48:27;;;;;;;6.97;3.80;;;;;;;5.00;75.21;94755.97;5066977;28;20212;-76
2024/03/25 03:50:52;;;;;;;9.30;4.20;;;;;;;4.82;75.94;94761.78;5086050;28;20278;-76
2024/03/25 03:53:18;;;;;;;6.60;4.07;;;;;;;4.76;75.81;94770.00;5090278;28;20267;-76
2024/03/25 03:55:53;;;;;;;9.00;4.50;;;;;;;4.92;75.68;94766.94;5096796;28;20185;-76
2024/03/25 03:58:18;;;;;;;9.77;4.07;;;;;;;4.86;76.14;94757.19;5079987;28;20590;-76
2024/03/25 04:00:44;;;;;;;8.93;4.23;;;;;;;4.84;75.94;94765.00;5087805;28;20192;-76
2024/03/25 04:03:09;;;;;;;8.20;4.20;;;;;;;4.87;76.14;94768.28;5087637;28;20246;-76
2024/03/25 04:05:34;;;;;;;9.37;4.37;;;;;;;4.99;75.65;94765.47;5065461;28;20235;-76
2024/03/25 04:08:00;;;;;;;9.10;3.87;;;;;;;5.03;75.22;94771.16;5081043;28;20244;-76
2024/03/25 04:10:27;;;;;;;7.23;4.17;;;;;;;4.89;75.87;94766.41;5085491;28;20640;-76
2024/03/25 04:12:52;;;;;;;9.90;3.93;;;;;;;4.89;76.25;94767.22;5085011;28;20283;-76
2024/03/25 04:15:17;;;;;;;7.90;4.23;;;;;;;5.00;75.61;94763.72;5079320;28;20268;-77
2024/03/25 04:17:46;;;;;;;12.67;4.73;;;;;;;4.97;76.04;94764.78;5086882;28;20243;-77
2024/03/25 04:20:12;;;;;;;9.03;4.27;;;;;;;5.01;75.75;94763.56;5086627;28;20192;-77
2024/03/25 04:22:44;;;;;;;13.57;4.27;;;;;;;5.08;75.87;94754.38;5065610;28;20192;-77
2024/03/25 04:25:11;;;;;;;8.30;4.20;;;;;;;5.04;76.07;94759.94;5085163;28;20245;-77
2024/03/25 04:27:40;;;;;;;7.60;4.33;;;;;;;5.09;75.86;94750.03;5099349;28;20200;-77
2024/03/25 04:30:08;;;;;;;10.17;4.77;;;;;;;4.89;76.66;94749.19;5083859;28;20258;-77
2024/03/25 04:32:33;;;;;;;8.20;4.97;;;;;;;4.93;76.05;94744.59;5080861;28;20278;-77
2024/03/25 04:34:59;;;;;;;7.07;4.77;;;;;;;5.00;76.17;94753.41;5101168;28;20330;-77
2024/03/25 04:37:24;;;;;;;10.80;4.57;;;;;;;4.94;76.06;94754.75;5085154;28;20630;-77
2024/03/25 04:39:49;;;;;;;9.00;4.03;;;;;;;5.00;75.89;94753.41;5095497;28;20179;-77
2024/03/25 04:42:15;;;;;;;10.03;5.00;;;;;;;5.09;75.66;94757.75;5084509;28;20188;-77
2024/03/25 04:44:40;;;;;;;8.20;4.47;;;;;;;5.04;75.95;94754.78;5093030;28;20670;-77
2024/03/25 04:47:06;;;;;;;10.80;4.57;;;;;;;4.99;76.73;94762.09;5080960;28;20208;-77
2024/03/25 04:49:31;;;;;;;12.40;7.43;;;;;;;5.10;75.94;94767.09;5087295;28;20215;-77
2024/03/25 04:51:56;;;;;;;10.67;5.67;;;;;;;5.10;76.31;94762.75;5085787;28;20199;-77
2024/03/25 04:54:22;;;;;;;11.70;5.73;;;;;;;5.08;76.30;94766.44;5084675;28;20266;-77
2024/03/25 04:56:47;;;;;;;12.43;5.07;;;;;;;5.07;76.16;94759.66;5081357;28;20215;-77
2024/03/25 04:59:13;;;;;;;11.73;5.10;;;;;;;5.03;76.55;94766.81;5085079;28;20206;-77
2024/03/25 05:01:38;;;;;;;12.23;5.33;;;;;;;5.01;76.83;94757.59;5071835;28;20291;-77
2024/03/25 05:04:03;;;;;;;9.50;5.03;;;;;;;5.00;76.68;94761.13;5089175;28;20187;-77
2024/03/25 05:06:28;;;;;;;10.60;5.07;;;;;;;4.94;76.83;94759.88;5079681;28;20180;-77
2024/03/25 05:08:54;;;;;;;10.23;5.27;;;;;;;4.99;76.91;94762.88;5083219;28;20215;-77
2024/03/25 05:11:19;;;;;;;10.37;5.40;;;;;;;5.03;76.70;94758.28;5083846;28;20563;-77
2024/03/25 05:13:47;;;;;;;11.77;5.07;;;;;;;5.01;76.98;94760.19;5086805;28;20559;-77
2024/03/25 05:16:13;;;;;;;8.40;5.43;;;;;;;4.98;76.49;94760.47;5081041;28;20644;-76
2024/03/25 05:18:38;;;;;;;14.43;4.90;;;;;;;4.94;76.93;94756.50;5089763;28;20300;-77
2024/03/25 05:21:03;;;;;;;12.03;4.80;;;;;;;4.90;76.81;94761.13;5078207;28;20321;-77
2024/03/25 05:23:29;;;;;;;8.50;5.07;;;;;;;4.96;76.60;94754.63;5087431;28;20283;-75
2024/03/25 05:25:54;;;;;;;11.50;4.73;;;;;;;4.89;76.85;94753.53;5072773;28;20585;-76
2024/03/25 05:28:19;;;;;;;11.30;4.33;;;;;;;4.90;76.58;94755.97;5077138;28;20197;-77
2024/03/25 05:30:45;;;;;;;10.73;4.53;;;;;;;4.79;76.94;94762.03;5082647;28;20195;-75
2024/03/25 05:33:10;;;;;;;9.00;4.77;;;;;;;4.82;76.74;94766.91;5062630;28;20408;-76
2024/03/25 05:35:36;;;;;;;9.00;4.77;;;;;;;4.60;77.92;94762.00;5074739;28;20192;-76
2024/03/25 05:38:03;;;;;;;6.87;5.27;;;;;;;4.62;77.41;94767.81;5059283;28;20211;-76
2024/03/25 05:40:28;;;;;;;8.40;4.87;;;;;;;4.48;78.00;94763.00;5085584;28;20206;-76
2024/03/25 05:42:54;;;;;;;11.07;4.93;;;;;;;4.65;77.26;94764.97;5074636;28;20258;-76
2024/03/25 05:45:19;;;;;;;11.93;5.40;;;;;;;4.60;77.18;94767.13;5090162;28;20300;-77
2024/03/25 05:47:44;;;;;;;9.30;5.10;;;;;;;4.70;76.99;94767.97;5069537;28;20257;-77
2024/03/25 05:50:10;;;;;;;12.83;5.20;;;;;;;4.70;77.08;94773.13;5068530;28;20232;-77
2024/03/25 05:52:35;;;;;;;9.20;5.23;;;;;;;4.67;77.02;94770.78;5067978;28;20637;-77
2024/03/25 05:55:01;;;;;;;6.60;4.10;;;;;;;4.74;76.90;94765.94;5076638;28;20278;-77
2024/03/25 05:57:26;;;;;;;9.97;4.67;;;;;;;4.81;76.60;94765.28;5071797;28;20201;-77
2024/03/25 05:59:52;;;;;;;8.57;4.70;;;;;;;4.81;76.08;94770.44;5071302;28;20573;-77
2024/03/25 06:02:17;;;;;;;12.93;5.20;;;;;;;4.76;76.60;94771.75;5071022;28;20267;-77
2024/03/25 06:04:42;;;;;;;10.30;5.40;;;;;;;4.80;76.54;94773.16;5069547;28;20524;-77
2024/03/25 06:07:08;;;;;;;9.40;5.23;;;;;;;4.86;76.24;94767.47;5063399;28;20257;-77
2024/03/25 06:09:33;;;;;;;7.13;5.00;;;;;;;4.84;75.86;94772.72;5072731;28;20204;-77
2024/03/25 06:11:59;;;;;;;7.13;4.67;;;;;;;4.91;76.05;94773.03;5062574;28;20180;-77
2024/03/25 06:14:24;;;;;;;8.77;4.70;;;;;;;4.93;75.93;94775.47;5079814;28;20181;-77
2024/03/25 06:16:49;;;;;;;7.07;4.37;;;;;;;4.93;75.16;94768.56;5071256;28;20556;-77
2024/03/25 06:19:15;;;;;;;9.53;4.77;;;;;;;5.00;75.16;94779.94;5077770;28;20192;-77
2024/03/25 06:21:42;;;;;;;7.07;4.67;;;;;;;5.02;75.24;94783.19;5081730;28;20184;-78
2024/03/25 06:24:07;;;;;;;15.63;5.30;;;;;;;5.04;74.82;94772.81;5069793;28;20645;-79
2024/03/25 06:26:36;;;;;;;11.83;4.87;;;;;;;5.03;75.02;94773.72;5054396;28;20189;-80
2024/03/25 06:29:02;;;;;;;11.67;4.77;;;;;;;5.15;74.69;94782.97;5073481;28;20260;-78
2024/03/25 06:34:17;;;;;;;10.83;4.70;;;;;;;5.25;74.09;94788.94;5086782;28;20276;-78
2024/03/25 06:36:42;;;;;;;8.47;4.70;;;;;;;5.15;74.25;94782.16;5061064;28;20196;-78
2024/03/25 06:39:09;;;;;;;9.67;4.40;;;;;;;5.23;73.87;94790.84;5084391;28;20187;-78
2024/03/25 06:41:35;;;;;;;12.37;5.67;;;;;;;5.31;73.86;94795.34;5083717;28;20185;-77
2024/03/25 06:44:00;;;;;;;8.17;4.33;;;;;;;5.36;74.07;94791.38;5074312;28;20214;-78
2024/03/25 06:46:25;;;;;;;8.00;3.87;;;;;;;5.27;73.92;94794.75;5074401;28;20228;-77
2024/03/25 06:48:52;;;;;;;9.30;4.07;;;;;;;5.44;73.03;94793.28;5089632;28;20234;-78
2024/03/25 06:51:17;;;;;;;8.20;3.90;;;;;;;5.53;73.29;94794.25;5070233;28;20188;-78
2024/03/25 06:53:43;;;;;;;10.33;4.13;;;;;;;5.60;72.97;94805.63;5083559;28;20192;-78
2024/03/25 06:56:08;;;;;;;10.30;5.63;;;;;;;5.52;72.70;94806.31;5085207;28;20611;-78
2024/03/25 06:58:34;;;;;;;7.63;4.30;;;;;;;5.65;72.50;94812.03;5052248;28;20220;-78
2024/03/25 07:01:07;;;;;;;5.97;3.87;;;;;;;5.78;72.56;94814.31;5080951;28;20953;-79
2024/03/25 07:03:33;;;;;;;7.07;4.33;;;;;;;5.74;72.23;94805.22;5079785;28;20678;-78
2024/03/25 07:06:00;;;;;;;10.07;4.50;;;;;;;5.74;72.60;94800.06;5082001;28;20200;-78
2024/03/25 07:08:25;;;;;;;5.93;4.30;;;;;;;5.87;71.36;94798.03;5080634;28;20260;-78
2024/03/25 07:10:51;;;;;;;8.23;4.03;;;;;;;5.90;71.00;94802.94;5094148;28;20228;-78
2024/03/25 07:13:16;;;;;;;8.93;4.33;;;;;;;5.99;70.62;94803.88;5095834;28;20209;-78
2024/03/25 07:15:42;;;;;;;6.67;3.93;;;;;;;5.96;69.96;94789.50;5066176;28;20192;-78
2024/03/25 07:18:10;;;;;;;5.17;3.57;;;;;;;5.95;69.97;94787.88;5085030;28;20200;-78
2024/03/25 07:20:35;;;;;;;5.63;3.47;;;;;;;6.05;69.85;94782.72;5072562;28;20176;-78
2024/03/25 07:23:00;;;;;;;9.07;4.07;;;;;;;6.17;69.31;94785.94;5093876;28;20189;-78
2024/03/25 07:25:26;;;;;;;5.67;4.77;;;;;;;6.01;67.83;94786.53;5079673;28;20230;-78
2024/03/25 07:27:55;;;;;;;9.50;3.43;;;;;;;6.02;67.63;94782.19;5066173;28;20223;-78
2024/03/25 07:30:22;;;;;;;7.17;3.70;;;;;;;6.25;66.70;94784.28;5083293;28;20228;-77
2024/03/25 07:32:47;;;;;;;6.00;3.20;;;;;;;6.26;65.72;94782.53;5090486;28;20177;-77
2024/03/25 07:35:13;;;;;;;5.73;3.13;;;;;;;6.25;64.67;94780.91;5084014;28;20680;-78
2024/03/25 07:37:38;;;;;;;6.03;3.13;;;;;;;6.27;64.66;94784.16;5072118;28;20197;-79
2024/03/25 07:40:04;;;;;;;5.50;3.47;;;;;;;6.23;64.09;94782.81;5083106;28;20175;-78
2024/03/25 07:42:30;;;;;;;4.33;1.90;;;;;;;6.26;61.40;94782.53;5062067;28;20217;-76
2024/03/25 07:44:55;;;;;;;4.47;2.30;;;;;;;6.39;61.78;94775.31;5082330;28;20187;-78
2024/03/25 07:47:20;;;;;;;5.13;2.40;;;;;;;6.51;61.05;94779.31;5083268;28;20270;-76
2024/03/25 07:49:46;;;;;;;4.83;2.00;;;;;;;6.52;60.97;94778.38;5082569;28;20287;-78
2024/03/25 07:52:11;;;;;;;4.97;2.10;;;;;;;6.60;60.81;94782.00;5060027;28;20220;-78
2024/03/25 07:54:37;;;;;;;2.93;2.03;;;;;;;6.74;60.76;94781.56;5058720;28;20188;-78
2024/03/25 07:57:05;;;;;;;7.17;2.30;;;;;;;6.78;60.82;94780.31;5062016;28;20216;-77
2024/03/25 07:59:31;;;;;;;4.37;2.63;;;;;;;6.92;61.51;94786.75;5090771;28;20266;-77
2024/03/25 08:01:56;;;;;;;7.77;2.97;;;;;;;7.06;62.22;94788.84;5054782;28;20673;-77
2024/03/25 08:04:21;;;;;;;6.70;3.20;;;;;;;7.03;62.84;94792.53;5076197;28;20215;-77
2024/03/25 08:06:47;;;;;;;6.00;2.60;;;;;;;7.53;62.42;94783.53;5089976;28;20181;-77
2024/03/25 08:09:13;;;;;;;4.03;2.70;;;;;;;7.73;60.32;94776.44;5079280;28;20197;-77
2024/03/25 08:11:39;;;;;;;6.37;1.83;;;;;;;7.71;56.31;94773.19;5080267;28;20181;-78
2024/03/25 08:14:04;;;;;;;4.47;1.77;;;;;;;7.72;55.61;94775.63;5074654;28;20187;-78
2024/03/25 08:16:30;;;;;;;5.60;2.13;;;;;;;7.78;55.06;94763.88;5073105;28;20192;-77
2024/03/25 08:18:55;;;;;;;3.77;2.03;;;;;;;7.89;55.21;94767.03;5093823;28;20239;-76
2024/03/25 08:21:20;;;;;;;3.87;1.67;;;;;;;7.76;54.00;94760.63;5090635;28;20218;-77
2024/03/25 08:23:46;;;;;;;2.77;1.77;;;;;;;7.73;54.08;94760.94;5069035;28;20204;-77
2024/03/25 08:26:11;;;;;;;4.40;1.80;;;;;;;7.76;53.83;94752.88;5073634;28;20283;-78
2024/03/25 08:28:37;;;;;;;4.13;1.67;;;;;;;7.52;51.42;94753.50;5082994;28;20284;-78
2024/03/25 08:31:03;;;;;;;3.10;1.57;;;;;;;7.60;51.63;94749.22;5067296;28;20178;-78
2024/03/25 08:33:28;;;;;;;4.70;1.80;;;;;;;7.48;52.90;94757.31;5086423;28;20188;-78
2024/03/25 08:35:54;;;;;;;1.83;1.50;;;;;;;7.80;52.74;94751.63;5078623;28;20180;-77
2024/03/25 08:38:19;;;;;;;5.73;2.50;;;;;;;7.82;52.83;94752.28;5076648;28;20235;-78
2024/03/25 08:40:45;;;;;;;2.50;1.40;;;;;;;7.88;52.64;94749.91;5079517;28;20197;-78
2024/03/25 08:43:10;;;;;;;3.63;1.60;;;;;;;7.63;51.18;94750.69;5068060;28;20659;-78
2024/03/25 08:45:35;;;;;;;3.00;1.63;;;;;;;7.97;51.34;94748.19;5081432;28;20183;-77
2024/03/25 08:48:01;;;;;;;4.77;2.33;;;;;;;8.00;54.35;94747.88;5079178;28;20215;-78
2024/03/25 08:50:26;;;;;;;3.90;2.03;;;;;;;7.94;54.27;94744.13;5080839;28;20213;-77
2024/03/25 08:52:52;;;;;;;3.37;1.87;;;;;;;7.99;52.60;94748.03;5095089;28;20267;-77
2024/03/25 08:55:17;;;;;;;3.70;2.00;;;;;;;8.45;53.23;94737.34;5066737;28;20185;-78
2024/03/25 08:57:42;;;;;;;7.67;2.00;;;;;;;8.14;52.59;94742.16;5091032;28;20705;-78
2024/03/25 09:00:10;;;;;;;4.03;2.23;;;;;;;8.45;54.00;94739.94;5076835;28;20180;-77
2024/03/25 09:02:36;;;;;;;7.30;2.47;;;;;;;8.16;53.34;94740.25;5083110;28;20185;-78
2024/03/25 09:05:04;;;;;;;6.30;2.10;;;;;;;8.10;53.58;94743.41;5073669;28;20207;-78
2024/03/25 09:07:30;;;;;;;3.73;1.80;;;;;;;7.55;55.41;94745.44;5072832;28;20578;-77
2024/03/25 09:12:39;;;;;;;4.93;2.10;;;;;;;7.84;53.32;94750.34;5075370;28;20196;-78
2024/03/25 09:15:05;;;;;;;4.30;2.10;;;;;;;7.94;53.43;94748.47;5069133;28;20180;-77
2024/03/25 09:17:31;;;;;;;2.73;1.60;;;;;;;8.09;53.31;94746.97;5081543;28;20401;-77
2024/03/25 09:19:56;;;;;;;2.57;1.70;;;;;;;7.72;52.57;94746.38;5073915;28;20205;-77
2024/03/25 09:22:21;;;;;;;2.77;1.90;;;;;;;7.80;51.49;94736.13;5072718;28;20183;-76
2024/03/25 09:24:47;;;;;;;4.70;2.27;;;;;;;7.87;52.28;94726.81;5072791;28;20674;-77
2024/03/25 09:27:12;;;;;;;2.83;1.30;;;;;;;7.94;52.02;94720.03;5069733;28;20204;-77
2024/03/25 09:29:37;;;;;;;6.17;2.07;;;;;;;8.08;51.89;94714.31;5073510;28;20704;-77
2024/03/25 09:32:03;;;;;;;5.63;2.03;;;;;;;7.84;51.30;94709.00;5085311;28;20670;-77
2024/03/25 09:34:28;;;;;;;2.90;1.43;;;;;;;7.93;51.26;94705.50;5054673;28;20188;-77
2024/03/25 09:36:53;;;;;;;6.00;1.87;;;;;;;8.00;51.58;94711.69;5073425;28;20190;-77
2024/03/25 09:39:19;;;;;;;5.20;1.90;;;;;;;8.13;50.74;94708.72;5071162;28;20227;-77
2024/03/25 09:41:46;;;;;;;3.97;1.70;;;;;;;8.65;50.61;94706.06;5066502;28;20264;-77
2024/03/25 09:44:11;;;;;;;4.47;1.90;;;;;;;8.68;50.20;94696.22;5069718;28;20192;-77
2024/03/25 09:46:37;;;;;;;3.83;1.67;;;;;;;9.02;49.82;94693.56;5074315;28;20201;-76
2024/03/25 09:49:05;;;;;;;3.70;1.83;;;;;;;9.12;47.67;94692.59;5070951;28;20200;-77
2024/03/25 09:51:31;;;;;;;3.90;1.73;;;;;;;9.30;48.41;94688.09;5070161;28;20216;-77
2024/03/25 09:53:56;;;;;;;3.33;1.37;;;;;;;9.21;48.82;94696.84;5072695;28;20765;-77
2024/03/25 09:56:21;;;;;;;3.63;1.60;;;;;;;9.45;47.54;94685.66;5055411;28;20230;-77
2024/03/25 09:58:47;;;;;;;6.20;1.53;;;;;;;9.41;47.75;94684.38;5065627;28;20205;-77
2024/03/25 10:01:12;;;;;;;2.87;1.37;;;;;;;9.39;46.98;94673.38;5073604;28;20334;-76
2024/03/25 10:03:38;;;;;;;3.60;1.87;;;;;;;9.44;47.28;94665.91;5056351;28;20185;-77
2024/03/25 10:06:03;;;;;;;3.73;1.50;;;;;;;9.83;46.80;94674.66;5073429;28;20195;-76
2024/03/25 10:08:31;;;;;;;4.93;2.33;;;;;;;9.86;48.54;94669.13;5059571;28;20205;-76
2024/03/25 10:10:58;;;;;;;2.00;1.30;;;;;;;10.09;45.10;94665.84;5091163;28;20275;-77
2024/03/25 10:13:23;;;;;;;5.83;1.70;;;;;;;9.82;44.59;94664.44;5052884;28;20196;-77
2024/03/25 10:15:49;;;;;;;5.77;1.87;;;;;;;10.16;44.24;94662.44;5071005;28;20185;-77
2024/03/25 10:18:14;;;;;;;5.30;1.60;;;;;;;10.29;42.96;94658.53;5078635;28;20200;-77
2024/03/25 10:20:51;;;;;;;4.27;1.97;;;;;;;10.33;43.33;94660.59;5056326;28;20197;-77
2024/03/25 10:23:21;;;;;;;4.90;1.50;;;;;;;9.55;42.84;94652.66;5050723;28;20586;-77
2024/03/25 10:25:47;;;;;;;4.13;1.77;;;;;;;10.01;43.48;94651.13;5086151;28;20271;-77
2024/03/25 10:28:13;;;;;;;3.60;1.53;;;;;;;10.26;42.70;94651.09;5073159;28;20203;-77
2024/03/25 10:30:40;;;;;;;3.70;1.70;;;;;;;10.17;40.77;94648.47;5074319;28;20296;-77
2024/03/25 10:33:06;;;;;;;9.37;5.30;;;;;;;10.05;41.54;94643.78;5061607;28;20186;-77
2024/03/25 10:35:33;;;;;;;7.57;4.67;;;;;;;10.26;41.50;94641.50;5067494;28;20192;-77
2024/03/25 10:38:04;;;;;;;5.63;2.57;;;;;;;10.34;40.63;94636.28;5053447;28;20669;-77
2024/03/25 10:40:34;;;;;;;4.87;1.70;;;;;;;10.35;41.70;94640.50;5079306;28;20192;-77
2024/03/25 10:43:02;;;;;;;6.03;1.50;;;;;;;10.46;41.90;94636.72;5050165;28;20206;-77
2024/03/25 10:45:29;;;;;;;2.97;1.30;;;;;;;11.06;42.77;94628.28;5092004;28;20176;-76
2024/03/25 10:47:57;;;;;;;3.27;1.73;;;;;;;10.78;42.15;94631.38;5085435;28;20208;-77
2024/03/25 10:50:25;;;;;;;5.70;1.93;;;;;;;10.72;41.72;94628.66;5079471;28;20236;-77
2024/03/25 10:52:51;;;;;;;4.87;1.63;;;;;;;11.07;41.88;94619.50;5071089;28;20708;-77
2024/03/25 10:55:17;;;;;;;5.33;1.50;;;;;;;11.19;41.44;94620.72;5057154;28;20212;-78
2024/03/25 10:57:42;;;;;;;4.37;1.70;;;;;;;10.94;42.62;94603.66;5054292;28;20572;-77
2024/03/25 11:00:08;;;;;;;4.83;1.90;;;;;;;10.39;42.16;94605.44;5059130;28;20648;-76
2024/03/25 11:02:33;;;;;;;3.53;1.50;;;;;;;9.86;42.78;94601.69;5073631;28;20209;-76
2024/03/25 11:04:59;;;;;;;5.13;1.77;;;;;;;10.07;42.71;94589.97;5068432;28;20175;-77
2024/03/25 11:07:31;;;;;;;3.27;1.47;;;;;;;10.41;40.85;94587.09;5082422;28;20211;-77
2024/03/25 11:10:05;;;;;;;2.77;1.23;;;;;;;10.10;42.10;94587.84;5075239;28;20196;-77
2024/03/25 11:12:38;;;;;;;6.90;4.63;;;;;;;10.20;42.87;94575.50;5070438;28;20188;-77
2024/03/25 11:15:05;;;;;;;3.27;1.87;;;;;;;10.45;42.54;94572.81;5075609;28;20184;-77
2024/03/25 11:17:31;;;;;;;4.80;1.90;;;;;;;10.57;43.27;94575.81;5094873;28;20209;-77
2024/03/25 11:20:08;;;;;;;3.17;1.63;;;;;;;10.66;41.93;94564.41;5067411;28;20524;-77
2024/03/25 11:22:33;;;;;;;1.70;1.60;;;;;;;10.09;42.66;94562.09;5083300;28;20235;-77
2024/03/25 11:25:06;;;;;;;1.43;1.33;;;;;;;10.23;41.13;94558.78;5083410;28;20264;-77
2024/03/25 11:27:32;;;;;;;2.33;1.43;;;;;;;10.35;39.76;94554.88;5082713;28;20265;-77
2024/03/25 11:29:57;;;;;;;2.07;1.57;;;;;;;10.53;39.77;94549.41;5060945;28;20199;-77
2024/03/25 11:32:22;;;;;;;2.80;1.70;;;;;;;10.81;41.12;94554.91;5051612;28;20263;-77
2024/03/25 11:34:51;;;;;;;2.57;1.57;;;;;;;10.97;38.71;94547.00;5072345;28;20223;-77
2024/03/25 11:37:16;;;;;;;3.43;1.90;;;;;;;10.90;37.68;94540.06;5092308;28;20690;-77